Etusivu
METAR-TAF:

METAR-TAF

Lentoasemat :

Garner Field

Uvalde, Texas, Yhdysvallat

Leveyspiiri: 29-12-40N, Pituuspiiri: 099-44-36W, korkeus merenpinnasta: 287 m

Tämänhetkinen sää

Tämä raportti tehtiin 21 minuuttia sitten, kello 11.15 UTC
Tuuli 4 kn pohjoisesta
Lämpötila 20°C
Kosteus 94%
Ilmanpaine 1018 hPa
Näkyvyys: 16.1 km
selkeää

METAR: KUVA 181115Z AUTO 36004KT 10SM CLR 20/19 A3006 RMK AO2 T01970194

Aika: 06:36 (11:36 UTC)


TAF: puuttuu

Säähavainnot ja -ennusteet yli 4000 lentoasemalta (METAR- ja TAF-raportit).

Käytössä olevat sääasemat on merkitty karttaan keltaisilla ja punaisilla pisteillä.

Aseta hiiri pisteen päälle nähdäksesi sääaseman nimen.

Klikkaa sitten nähdäksesi säähavainnot ja -ennusteet.

Kartan vaihtaminen: klikkaa mustalla rastilla varustettuja vihreitä pisteitä, niin voit zoomata sisään; viivalla varustettua vihreää pistettä, niin voit zoomata ulos tai vihreitä nuolia, niin pääset viereisille kartoille.


METAR-TAF: